sensor_id;sensor_type;location;lat;lon;timestamp;P1;durP1;ratioP1;P2;durP2;ratioP2
65871;SDS011;52653;50.080;21.992;2023-08-12T00:01:38;16.80;;;13.30;;
65871;SDS011;52653;50.080;21.992;2023-08-12T00:04:31;15.10;;;13.50;;
65871;SDS011;52653;50.080;21.992;2023-08-12T00:07:18;15.90;;;14.10;;
65871;SDS011;52653;50.080;21.992;2023-08-12T00:10:11;15.50;;;13.00;;
65871;SDS011;52653;50.080;21.992;2023-08-12T00:12:55;14.20;;;12.20;;
65871;SDS011;52653;50.080;21.992;2023-08-12T00:15:39;14.70;;;12.20;;
65871;SDS011;52653;50.080;21.992;2023-08-12T00:18:31;13.60;;;12.20;;
65871;SDS011;52653;50.080;21.992;2023-08-12T00:21:26;13.10;;;11.80;;
65871;SDS011;52653;50.080;21.992;2023-08-12T00:24:19;13.30;;;11.90;;
65871;SDS011;52653;50.080;21.992;2023-08-12T00:27:12;13.80;;;12.10;;
65871;SDS011;52653;50.080;21.992;2023-08-12T00:30:06;14.40;;;11.90;;
65871;SDS011;52653;50.080;21.992;2023-08-12T00:32:59;14.60;;;12.50;;
65871;SDS011;52653;50.080;21.992;2023-08-12T00:35:54;13.00;;;11.40;;
65871;SDS011;52653;50.080;21.992;2023-08-12T00:38:46;15.80;;;12.80;;
65871;SDS011;52653;50.080;21.992;2023-08-12T00:41:40;12.90;;;11.50;;
65871;SDS011;52653;50.080;21.992;2023-08-12T00:44:33;16.80;;;12.70;;
65871;SDS011;52653;50.080;21.992;2023-08-12T00:47:26;16.90;;;12.30;;
65871;SDS011;52653;50.080;21.992;2023-08-12T00:50:20;13.50;;;11.90;;
65871;SDS011;52653;50.080;21.992;2023-08-12T00:53:12;14.10;;;12.60;;
65871;SDS011;52653;50.080;21.992;2023-08-12T00:56:07;15.40;;;13.80;;
65871;SDS011;52653;50.080;21.992;2023-08-12T00:59:00;14.90;;;13.40;;
65871;SDS011;52653;50.080;21.992;2023-08-12T01:01:55;14.70;;;13.10;;
65871;SDS011;52653;50.080;21.992;2023-08-12T01:04:35;17.70;;;14.40;;
65871;SDS011;52653;50.080;21.992;2023-08-12T01:07:27;16.50;;;14.30;;
65871;SDS011;52653;50.080;21.992;2023-08-12T01:10:21;19.10;;;14.00;;
65871;SDS011;52653;50.080;21.992;2023-08-12T01:13:23;16.90;;;14.90;;
65871;SDS011;52653;50.080;21.992;2023-08-12T01:16:22;16.30;;;14.40;;
65871;SDS011;52653;50.080;21.992;2023-08-12T01:22:09;16.10;;;14.40;;
65871;SDS011;52653;50.080;21.992;2023-08-12T01:25:03;16.00;;;14.40;;
65871;SDS011;52653;50.080;21.992;2023-08-12T01:27:57;16.30;;;14.40;;
65871;SDS011;52653;50.080;21.992;2023-08-12T01:30:51;16.90;;;14.20;;
65871;SDS011;52653;50.080;21.992;2023-08-12T01:33:54;17.10;;;14.20;;
65871;SDS011;52653;50.080;21.992;2023-08-12T01:36:54;15.40;;;13.80;;
65871;SDS011;52653;50.080;21.992;2023-08-12T01:39:47;14.70;;;13.20;;
65871;SDS011;52653;50.080;21.992;2023-08-12T01:42:43;15.80;;;14.00;;
65871;SDS011;52653;50.080;21.992;2023-08-12T01:45:39;14.90;;;13.40;;
65871;SDS011;52653;50.080;21.992;2023-08-12T01:48:28;15.20;;;13.20;;
65871;SDS011;52653;50.080;21.992;2023-08-12T01:51:19;15.80;;;13.80;;
65871;SDS011;52653;50.080;21.992;2023-08-12T01:54:13;17.10;;;13.30;;
65871;SDS011;52653;50.080;21.992;2023-08-12T01:56:58;15.00;;;12.70;;
65871;SDS011;52653;50.080;21.992;2023-08-12T01:59:47;15.50;;;13.60;;
65871;SDS011;52653;50.080;21.992;2023-08-12T02:02:40;14.20;;;12.00;;
65871;SDS011;52653;50.080;21.992;2023-08-12T02:05:36;16.80;;;13.20;;
65871;SDS011;52653;50.080;21.992;2023-08-12T02:08:31;13.60;;;12.20;;
65871;SDS011;52653;50.080;21.992;2023-08-12T02:11:25;19.30;;;13.20;;
65871;SDS011;52653;50.080;21.992;2023-08-12T02:14:18;14.70;;;13.10;;
65871;SDS011;52653;50.080;21.992;2023-08-12T02:17:10;15.00;;;13.50;;
65871;SDS011;52653;50.080;21.992;2023-08-12T02:20:04;15.40;;;13.00;;
65871;SDS011;52653;50.080;21.992;2023-08-12T02:23:00;14.50;;;13.00;;
65871;SDS011;52653;50.080;21.992;2023-08-12T02:25:54;15.60;;;13.80;;
65871;SDS011;52653;50.080;21.992;2023-08-12T02:28:47;15.40;;;13.90;;
65871;SDS011;52653;50.080;21.992;2023-08-12T02:31:40;16.30;;;13.60;;
65871;SDS011;52653;50.080;21.992;2023-08-12T02:34:32;15.60;;;13.30;;
65871;SDS011;52653;50.080;21.992;2023-08-12T02:37:25;15.90;;;13.00;;
65871;SDS011;52653;50.080;21.992;2023-08-12T02:40:17;14.20;;;12.70;;
65871;SDS011;52653;50.080;21.992;2023-08-12T02:43:10;15.20;;;12.50;;
65871;SDS011;52653;50.080;21.992;2023-08-12T02:46:04;15.30;;;13.50;;
65871;SDS011;52653;50.080;21.992;2023-08-12T02:48:57;14.60;;;12.80;;
65871;SDS011;52653;50.080;21.992;2023-08-12T02:51:40;14.70;;;12.80;;
65871;SDS011;52653;50.080;21.992;2023-08-12T02:54:33;16.30;;;13.30;;
65871;SDS011;52653;50.080;21.992;2023-08-12T02:57:19;14.70;;;13.20;;
65871;SDS011;52653;50.080;21.992;2023-08-12T03:00:13;16.60;;;14.10;;
65871;SDS011;52653;50.080;21.992;2023-08-12T03:03:05;17.10;;;13.70;;
65871;SDS011;52653;50.080;21.992;2023-08-12T03:05:58;16.40;;;13.70;;
65871;SDS011;52653;50.080;21.992;2023-08-12T03:08:51;16.20;;;14.50;;
65871;SDS011;52653;50.080;21.992;2023-08-12T03:11:44;15.90;;;14.30;;
65871;SDS011;52653;50.080;21.992;2023-08-12T03:14:38;15.40;;;13.80;;
65871;SDS011;52653;50.080;21.992;2023-08-12T03:17:31;15.70;;;14.00;;
65871;SDS011;52653;50.080;21.992;2023-08-12T03:20:25;17.50;;;15.00;;
65871;SDS011;52653;50.080;21.992;2023-08-12T03:23:18;16.40;;;14.00;;
65871;SDS011;52653;50.080;21.992;2023-08-12T03:26:11;17.80;;;14.30;;
65871;SDS011;52653;50.080;21.992;2023-08-12T03:29:04;15.70;;;14.10;;
65871;SDS011;52653;50.080;21.992;2023-08-12T03:31:57;16.00;;;14.40;;
65871;SDS011;52653;50.080;21.992;2023-08-12T03:34:50;16.90;;;14.50;;
65871;SDS011;52653;50.080;21.992;2023-08-12T03:37:47;15.30;;;13.70;;
65871;SDS011;52653;50.080;21.992;2023-08-12T03:40:41;15.30;;;13.80;;
65871;SDS011;52653;50.080;21.992;2023-08-12T03:43:33;17.10;;;13.60;;
65871;SDS011;52653;50.080;21.992;2023-08-12T03:46:38;16.50;;;14.40;;
65871;SDS011;52653;50.080;21.992;2023-08-12T03:49:31;16.50;;;14.10;;
65871;SDS011;52653;50.080;21.992;2023-08-12T03:52:25;15.90;;;13.40;;
65871;SDS011;52653;50.080;21.992;2023-08-12T03:55:18;14.00;;;12.10;;
65871;SDS011;52653;50.080;21.992;2023-08-12T03:58:10;15.50;;;12.80;;
65871;SDS011;52653;50.080;21.992;2023-08-12T04:01:03;15.20;;;12.10;;
65871;SDS011;52653;50.080;21.992;2023-08-12T04:03:57;13.90;;;11.80;;
65871;SDS011;52653;50.080;21.992;2023-08-12T04:06:43;13.70;;;11.10;;
65871;SDS011;52653;50.080;21.992;2023-08-12T04:09:37;12.50;;;11.10;;
65871;SDS011;52653;50.080;21.992;2023-08-12T04:12:30;15.00;;;12.30;;
65871;SDS011;52653;50.080;21.992;2023-08-12T04:15:16;13.20;;;11.50;;
65871;SDS011;52653;50.080;21.992;2023-08-12T04:18:10;14.40;;;11.10;;
65871;SDS011;52653;50.080;21.992;2023-08-12T04:21:03;12.20;;;10.60;;
65871;SDS011;52653;50.080;21.992;2023-08-12T04:23:50;13.60;;;10.80;;
65871;SDS011;52653;50.080;21.992;2023-08-12T04:26:43;14.10;;;10.80;;
65871;SDS011;52653;50.080;21.992;2023-08-12T04:29:37;15.30;;;11.00;;
65871;SDS011;52653;50.080;21.992;2023-08-12T04:32:24;14.70;;;10.10;;
65871;SDS011;52653;50.080;21.992;2023-08-12T04:35:10;13.20;;;10.50;;
65871;SDS011;52653;50.080;21.992;2023-08-12T04:38:03;10.50;;;9.40;;
65871;SDS011;52653;50.080;21.992;2023-08-12T04:40:56;13.50;;;9.20;;
65871;SDS011;52653;50.080;21.992;2023-08-12T04:43:51;12.30;;;9.50;;
65871;SDS011;52653;50.080;21.992;2023-08-12T04:46:46;13.10;;;10.10;;
65871;SDS011;52653;50.080;21.992;2023-08-12T04:49:40;13.40;;;10.40;;
65871;SDS011;52653;50.080;21.992;2023-08-12T04:52:33;13.80;;;9.70;;
65871;SDS011;52653;50.080;21.992;2023-08-12T04:55:26;11.40;;;9.50;;
65871;SDS011;52653;50.080;21.992;2023-08-12T04:58:19;14.90;;;8.70;;
65871;SDS011;52653;50.080;21.992;2023-08-12T05:01:12;12.50;;;9.40;;
65871;SDS011;52653;50.080;21.992;2023-08-12T05:04:06;10.90;;;8.60;;
65871;SDS011;52653;50.080;21.992;2023-08-12T05:06:59;10.00;;;7.50;;
65871;SDS011;52653;50.080;21.992;2023-08-12T05:09:52;9.80;;;7.60;;
65871;SDS011;52653;50.080;21.992;2023-08-12T05:12:45;9.80;;;7.30;;
65871;SDS011;52653;50.080;21.992;2023-08-12T05:15:40;9.90;;;7.10;;
65871;SDS011;52653;50.080;21.992;2023-08-12T05:18:28;9.10;;;7.50;;
65871;SDS011;52653;50.080;21.992;2023-08-12T05:21:21;9.90;;;7.50;;
65871;SDS011;52653;50.080;21.992;2023-08-12T05:24:14;9.90;;;7.30;;
65871;SDS011;52653;50.080;21.992;2023-08-12T05:27:07;9.90;;;7.20;;
65871;SDS011;52653;50.080;21.992;2023-08-12T05:29:59;10.60;;;7.00;;
65871;SDS011;52653;50.080;21.992;2023-08-12T05:32:52;9.00;;;7.10;;
65871;SDS011;52653;50.080;21.992;2023-08-12T05:35:48;9.20;;;7.10;;
65871;SDS011;52653;50.080;21.992;2023-08-12T05:38:42;10.70;;;7.60;;
65871;SDS011;52653;50.080;21.992;2023-08-12T05:41:36;9.30;;;6.60;;
65871;SDS011;52653;50.080;21.992;2023-08-12T05:44:22;12.60;;;7.00;;
65871;SDS011;52653;50.080;21.992;2023-08-12T05:47:15;8.50;;;6.50;;
65871;SDS011;52653;50.080;21.992;2023-08-12T05:50:00;8.40;;;6.50;;
65871;SDS011;52653;50.080;21.992;2023-08-12T05:52:54;10.30;;;6.70;;
65871;SDS011;52653;50.080;21.992;2023-08-12T05:55:47;9.30;;;5.90;;
65871;SDS011;52653;50.080;21.992;2023-08-12T05:58:33;9.40;;;6.80;;
65871;SDS011;52653;50.080;21.992;2023-08-12T06:01:26;8.80;;;6.50;;
65871;SDS011;52653;50.080;21.992;2023-08-12T06:04:19;8.30;;;6.20;;
65871;SDS011;52653;50.080;21.992;2023-08-12T06:07:13;9.10;;;6.20;;
65871;SDS011;52653;50.080;21.992;2023-08-12T06:10:08;8.90;;;5.80;;
65871;SDS011;52653;50.080;21.992;2023-08-12T06:13:01;8.00;;;6.00;;
65871;SDS011;52653;50.080;21.992;2023-08-12T06:15:54;8.50;;;5.90;;
65871;SDS011;52653;50.080;21.992;2023-08-12T06:18:40;8.80;;;5.80;;
65871;SDS011;52653;50.080;21.992;2023-08-12T06:21:26;7.90;;;5.50;;
65871;SDS011;52653;50.080;21.992;2023-08-12T06:24:09;8.60;;;5.70;;
65871;SDS011;52653;50.080;21.992;2023-08-12T06:27:02;13.60;;;6.50;;
65871;SDS011;52653;50.080;21.992;2023-08-12T06:29:43;15.00;;;6.60;;
65871;SDS011;52653;50.080;21.992;2023-08-12T06:32:36;8.70;;;5.50;;
65871;SDS011;52653;50.080;21.992;2023-08-12T06:35:29;8.30;;;5.70;;
65871;SDS011;52653;50.080;21.992;2023-08-12T06:38:24;8.00;;;5.90;;
65871;SDS011;52653;50.080;21.992;2023-08-12T06:41:17;9.20;;;5.90;;
65871;SDS011;52653;50.080;21.992;2023-08-12T06:44:10;9.40;;;6.20;;
65871;SDS011;52653;50.080;21.992;2023-08-12T06:47:03;9.10;;;5.50;;
65871;SDS011;52653;50.080;21.992;2023-08-12T06:49:55;9.70;;;5.80;;
65871;SDS011;52653;50.080;21.992;2023-08-12T06:52:49;7.90;;;5.80;;
65871;SDS011;52653;50.080;21.992;2023-08-12T06:55:45;8.70;;;5.60;;
65871;SDS011;52653;50.080;21.992;2023-08-12T06:58:38;9.80;;;5.90;;
65871;SDS011;52653;50.080;21.992;2023-08-12T07:01:23;7.60;;;5.60;;
65871;SDS011;52653;50.080;21.992;2023-08-12T07:04:16;8.20;;;5.70;;
65871;SDS011;52653;50.080;21.992;2023-08-12T07:07:11;7.60;;;5.40;;
65871;SDS011;52653;50.080;21.992;2023-08-12T07:10:06;8.60;;;5.40;;
65871;SDS011;52653;50.080;21.992;2023-08-12T07:13:00;8.50;;;5.30;;
65871;SDS011;52653;50.080;21.992;2023-08-12T07:15:53;8.50;;;5.30;;
65871;SDS011;52653;50.080;21.992;2023-08-12T07:18:46;8.40;;;5.00;;
65871;SDS011;52653;50.080;21.992;2023-08-12T07:21:39;8.50;;;4.80;;
65871;SDS011;52653;50.080;21.992;2023-08-12T07:24:31;7.10;;;4.60;;
65871;SDS011;52653;50.080;21.992;2023-08-12T07:27:17;7.30;;;5.00;;
65871;SDS011;52653;50.080;21.992;2023-08-12T07:30:10;6.20;;;4.70;;
65871;SDS011;52653;50.080;21.992;2023-08-12T07:33:04;9.10;;;4.50;;
65871;SDS011;52653;50.080;21.992;2023-08-12T07:35:57;6.90;;;4.80;;
65871;SDS011;52653;50.080;21.992;2023-08-12T07:38:43;8.50;;;4.50;;
65871;SDS011;52653;50.080;21.992;2023-08-12T07:41:36;8.50;;;4.60;;
65871;SDS011;52653;50.080;21.992;2023-08-12T07:44:13;7.30;;;4.30;;
65871;SDS011;52653;50.080;21.992;2023-08-12T07:47:08;8.00;;;4.30;;
65871;SDS011;52653;50.080;21.992;2023-08-12T07:50:02;7.20;;;4.90;;
65871;SDS011;52653;50.080;21.992;2023-08-12T07:52:46;7.40;;;4.70;;
65871;SDS011;52653;50.080;21.992;2023-08-12T07:55:43;6.40;;;4.40;;
65871;SDS011;52653;50.080;21.992;2023-08-12T07:58:36;6.50;;;4.50;;
65871;SDS011;52653;50.080;21.992;2023-08-12T08:01:29;5.90;;;4.30;;
65871;SDS011;52653;50.080;21.992;2023-08-12T08:04:25;7.10;;;4.30;;
65871;SDS011;52653;50.080;21.992;2023-08-12T08:07:19;5.60;;;3.90;;
65871;SDS011;52653;50.080;21.992;2023-08-12T08:10:14;5.90;;;4.50;;
65871;SDS011;52653;50.080;21.992;2023-08-12T08:12:55;7.30;;;4.40;;
65871;SDS011;52653;50.080;21.992;2023-08-12T08:15:48;5.80;;;4.00;;
65871;SDS011;52653;50.080;21.992;2023-08-12T08:18:41;6.60;;;4.10;;
65871;SDS011;52653;50.080;21.992;2023-08-12T08:21:32;6.80;;;4.20;;
65871;SDS011;52653;50.080;21.992;2023-08-12T08:24:28;6.90;;;4.10;;
65871;SDS011;52653;50.080;21.992;2023-08-12T08:27:18;6.90;;;3.90;;
65871;SDS011;52653;50.080;21.992;2023-08-12T08:30:05;5.50;;;3.60;;
65871;SDS011;52653;50.080;21.992;2023-08-12T08:32:59;7.00;;;4.00;;
65871;SDS011;52653;50.080;21.992;2023-08-12T08:35:54;5.90;;;3.70;;
65871;SDS011;52653;50.080;21.992;2023-08-12T08:38:29;4.80;;;3.60;;
65871;SDS011;52653;50.080;21.992;2023-08-12T08:41:20;8.70;;;3.50;;
65871;SDS011;52653;50.080;21.992;2023-08-12T08:44:15;6.20;;;3.40;;
65871;SDS011;52653;50.080;21.992;2023-08-12T08:46:53;6.40;;;3.60;;
65871;SDS011;52653;50.080;21.992;2023-08-12T08:49:46;5.90;;;3.70;;
65871;SDS011;52653;50.080;21.992;2023-08-12T08:52:21;6.20;;;3.90;;
65871;SDS011;52653;50.080;21.992;2023-08-12T08:54:54;7.60;;;3.90;;
65871;SDS011;52653;50.080;21.992;2023-08-12T08:57:52;6.50;;;3.60;;
65871;SDS011;52653;50.080;21.992;2023-08-12T09:00:33;6.20;;;3.80;;
65871;SDS011;52653;50.080;21.992;2023-08-12T09:03:08;7.50;;;4.00;;
65871;SDS011;52653;50.080;21.992;2023-08-12T09:05:47;7.00;;;3.80;;
65871;SDS011;52653;50.080;21.992;2023-08-12T09:08:29;6.40;;;3.70;;
65871;SDS011;52653;50.080;21.992;2023-08-12T09:11:07;5.80;;;4.00;;
65871;SDS011;52653;50.080;21.992;2023-08-12T09:13:43;6.30;;;3.70;;
65871;SDS011;52653;50.080;21.992;2023-08-12T09:16:37;5.90;;;3.90;;
65871;SDS011;52653;50.080;21.992;2023-08-12T09:19:30;6.60;;;3.80;;
65871;SDS011;52653;50.080;21.992;2023-08-12T09:22:25;7.20;;;3.60;;
65871;SDS011;52653;50.080;21.992;2023-08-12T09:27:46;6.00;;;3.50;;
65871;SDS011;52653;50.080;21.992;2023-08-12T09:30:18;5.80;;;3.30;;
65871;SDS011;52653;50.080;21.992;2023-08-12T09:32:59;5.50;;;3.20;;
65871;SDS011;52653;50.080;21.992;2023-08-12T09:35:36;6.00;;;3.80;;
65871;SDS011;52653;50.080;21.992;2023-08-12T09:38:30;5.60;;;3.20;;
65871;SDS011;52653;50.080;21.992;2023-08-12T09:41:23;6.30;;;3.50;;
65871;SDS011;52653;50.080;21.992;2023-08-12T09:44:12;6.00;;;3.80;;
65871;SDS011;52653;50.080;21.992;2023-08-12T09:46:49;6.80;;;3.50;;
65871;SDS011;52653;50.080;21.992;2023-08-12T09:49:39;4.90;;;3.20;;
65871;SDS011;52653;50.080;21.992;2023-08-12T09:52:33;5.60;;;3.40;;
65871;SDS011;52653;50.080;21.992;2023-08-12T09:55:26;5.90;;;3.80;;
65871;SDS011;52653;50.080;21.992;2023-08-12T09:58:22;4.40;;;2.70;;
65871;SDS011;52653;50.080;21.992;2023-08-12T10:01:19;5.40;;;3.20;;
65871;SDS011;52653;50.080;21.992;2023-08-12T10:03:52;6.60;;;3.10;;
65871;SDS011;52653;50.080;21.992;2023-08-12T10:06:39;4.60;;;2.90;;
65871;SDS011;52653;50.080;21.992;2023-08-12T10:09:21;4.80;;;3.00;;
65871;SDS011;52653;50.080;21.992;2023-08-12T10:12:09;4.90;;;2.80;;
65871;SDS011;52653;50.080;21.992;2023-08-12T10:15:08;3.90;;;2.50;;
65871;SDS011;52653;50.080;21.992;2023-08-12T10:17:52;4.60;;;2.50;;
65871;SDS011;52653;50.080;21.992;2023-08-12T10:20:46;4.30;;;2.80;;
65871;SDS011;52653;50.080;21.992;2023-08-12T10:23:35;4.70;;;3.00;;
65871;SDS011;52653;50.080;21.992;2023-08-12T10:26:29;5.50;;;2.90;;
65871;SDS011;52653;50.080;21.992;2023-08-12T10:29:23;5.50;;;2.80;;
65871;SDS011;52653;50.080;21.992;2023-08-12T10:32:09;5.20;;;2.90;;
65871;SDS011;52653;50.080;21.992;2023-08-12T10:35:04;5.30;;;2.80;;
65871;SDS011;52653;50.080;21.992;2023-08-12T10:37:59;5.20;;;2.90;;
65871;SDS011;52653;50.080;21.992;2023-08-12T10:40:36;5.80;;;3.20;;
65871;SDS011;52653;50.080;21.992;2023-08-12T10:43:30;6.90;;;3.10;;
65871;SDS011;52653;50.080;21.992;2023-08-12T10:46:35;4.50;;;2.90;;
65871;SDS011;52653;50.080;21.992;2023-08-12T10:49:36;4.90;;;2.80;;
65871;SDS011;52653;50.080;21.992;2023-08-12T10:52:33;4.00;;;2.70;;
65871;SDS011;52653;50.080;21.992;2023-08-12T10:55:18;3.50;;;2.70;;
65871;SDS011;52653;50.080;21.992;2023-08-12T10:58:06;5.50;;;2.70;;
65871;SDS011;52653;50.080;21.992;2023-08-12T11:01:16;4.80;;;2.70;;
65871;SDS011;52653;50.080;21.992;2023-08-12T11:04:18;5.60;;;2.70;;
65871;SDS011;52653;50.080;21.992;2023-08-12T11:06:57;5.80;;;2.60;;
65871;SDS011;52653;50.080;21.992;2023-08-12T11:09:42;4.80;;;2.60;;
65871;SDS011;52653;50.080;21.992;2023-08-12T11:12:37;4.80;;;2.70;;
65871;SDS011;52653;50.080;21.992;2023-08-12T11:15:32;4.50;;;2.90;;
65871;SDS011;52653;50.080;21.992;2023-08-12T11:18:25;5.40;;;2.70;;
65871;SDS011;52653;50.080;21.992;2023-08-12T11:21:12;5.30;;;2.70;;
65871;SDS011;52653;50.080;21.992;2023-08-12T11:23:49;4.90;;;3.00;;
65871;SDS011;52653;50.080;21.992;2023-08-12T11:26:25;6.20;;;2.80;;
65871;SDS011;52653;50.080;21.992;2023-08-12T11:29:11;3.90;;;2.70;;
65871;SDS011;52653;50.080;21.992;2023-08-12T11:31:47;6.10;;;2.70;;
65871;SDS011;52653;50.080;21.992;2023-08-12T11:34:41;4.60;;;2.80;;
65871;SDS011;52653;50.080;21.992;2023-08-12T11:37:28;5.10;;;2.80;;
65871;SDS011;52653;50.080;21.992;2023-08-12T11:40:12;7.00;;;3.10;;
65871;SDS011;52653;50.080;21.992;2023-08-12T11:43:06;4.90;;;2.70;;
65871;SDS011;52653;50.080;21.992;2023-08-12T11:48:37;5.30;;;2.80;;
65871;SDS011;52653;50.080;21.992;2023-08-12T11:51:21;5.30;;;3.10;;
65871;SDS011;52653;50.080;21.992;2023-08-12T11:54:13;5.00;;;3.20;;
65871;SDS011;52653;50.080;21.992;2023-08-12T11:57:07;4.30;;;2.80;;
65871;SDS011;52653;50.080;21.992;2023-08-12T11:59:40;6.00;;;2.70;;
65871;SDS011;52653;50.080;21.992;2023-08-12T12:02:23;4.60;;;2.60;;
65871;SDS011;52653;50.080;21.992;2023-08-12T12:04:56;4.20;;;2.50;;
65871;SDS011;52653;50.080;21.992;2023-08-12T12:07:34;3.90;;;2.70;;
65871;SDS011;52653;50.080;21.992;2023-08-12T12:10:20;6.60;;;2.80;;
65871;SDS011;52653;50.080;21.992;2023-08-12T12:13:18;4.00;;;2.40;;
65871;SDS011;52653;50.080;21.992;2023-08-12T12:15:58;6.30;;;2.90;;
65871;SDS011;52653;50.080;21.992;2023-08-12T12:18:40;5.30;;;3.20;;
65871;SDS011;52653;50.080;21.992;2023-08-12T12:21:26;11.70;;;2.70;;
65871;SDS011;52653;50.080;21.992;2023-08-12T12:24:09;5.10;;;2.90;;
65871;SDS011;52653;50.080;21.992;2023-08-12T12:27:02;4.60;;;2.60;;
65871;SDS011;52653;50.080;21.992;2023-08-12T12:29:35;4.20;;;2.80;;
65871;SDS011;52653;50.080;21.992;2023-08-12T12:32:27;5.60;;;2.70;;
65871;SDS011;52653;50.080;21.992;2023-08-12T12:35:20;5.30;;;2.80;;
65871;SDS011;52653;50.080;21.992;2023-08-12T12:38:01;4.70;;;2.90;;
65871;SDS011;52653;50.080;21.992;2023-08-12T12:40:34;4.40;;;3.00;;
65871;SDS011;52653;50.080;21.992;2023-08-12T12:43:07;4.50;;;2.90;;
65871;SDS011;52653;50.080;21.992;2023-08-12T12:46:01;3.50;;;2.70;;
65871;SDS011;52653;50.080;21.992;2023-08-12T12:48:37;4.00;;;2.80;;
65871;SDS011;52653;50.080;21.992;2023-08-12T12:51:30;5.10;;;2.80;;
65871;SDS011;52653;50.080;21.992;2023-08-12T12:54:24;4.50;;;2.70;;
65871;SDS011;52653;50.080;21.992;2023-08-12T12:56:59;5.20;;;3.00;;
65871;SDS011;52653;50.080;21.992;2023-08-12T12:59:33;4.90;;;2.70;;
65871;SDS011;52653;50.080;21.992;2023-08-12T13:02:07;4.60;;;2.80;;
65871;SDS011;52653;50.080;21.992;2023-08-12T13:05:01;5.10;;;3.00;;
65871;SDS011;52653;50.080;21.992;2023-08-12T13:07:54;4.60;;;2.80;;
65871;SDS011;52653;50.080;21.992;2023-08-12T13:10:29;4.10;;;2.70;;
65871;SDS011;52653;50.080;21.992;2023-08-12T13:13:02;3.90;;;2.70;;
65871;SDS011;52653;50.080;21.992;2023-08-12T13:15:47;4.10;;;2.80;;
65871;SDS011;52653;50.080;21.992;2023-08-12T13:18:20;5.50;;;2.90;;
65871;SDS011;52653;50.080;21.992;2023-08-12T13:20:52;5.00;;;3.40;;
65871;SDS011;52653;50.080;21.992;2023-08-12T13:23:35;4.80;;;2.80;;
65871;SDS011;52653;50.080;21.992;2023-08-12T13:26:10;6.10;;;2.90;;
65871;SDS011;52653;50.080;21.992;2023-08-12T13:28:44;4.20;;;2.80;;
65871;SDS011;52653;50.080;21.992;2023-08-12T13:31:17;5.10;;;3.10;;
65871;SDS011;52653;50.080;21.992;2023-08-12T13:34:10;5.30;;;2.80;;
65871;SDS011;52653;50.080;21.992;2023-08-12T13:36:52;5.80;;;2.90;;
65871;SDS011;52653;50.080;21.992;2023-08-12T13:39:45;5.20;;;3.10;;
65871;SDS011;52653;50.080;21.992;2023-08-12T13:42:18;5.40;;;3.40;;
65871;SDS011;52653;50.080;21.992;2023-08-12T13:45:01;10.80;;;6.40;;
65871;SDS011;52653;50.080;21.992;2023-08-12T13:47:36;5.80;;;3.50;;
65871;SDS011;52653;50.080;21.992;2023-08-12T13:50:11;5.40;;;3.60;;
65871;SDS011;52653;50.080;21.992;2023-08-12T13:52:55;5.30;;;3.00;;
65871;SDS011;52653;50.080;21.992;2023-08-12T13:55:33;4.50;;;3.00;;
65871;SDS011;52653;50.080;21.992;2023-08-12T13:58:09;5.00;;;2.90;;
65871;SDS011;52653;50.080;21.992;2023-08-12T14:00:45;5.00;;;3.10;;
65871;SDS011;52653;50.080;21.992;2023-08-12T14:03:21;4.90;;;3.10;;
65871;SDS011;52653;50.080;21.992;2023-08-12T14:06:03;7.30;;;3.60;;
65871;SDS011;52653;50.080;21.992;2023-08-12T14:08:49;5.10;;;3.30;;
65871;SDS011;52653;50.080;21.992;2023-08-12T14:11:36;5.50;;;3.00;;
65871;SDS011;52653;50.080;21.992;2023-08-12T14:14:21;5.60;;;3.40;;
65871;SDS011;52653;50.080;21.992;2023-08-12T14:17:18;5.60;;;3.10;;
65871;SDS011;52653;50.080;21.992;2023-08-12T14:20:07;4.20;;;2.90;;
65871;SDS011;52653;50.080;21.992;2023-08-12T14:23:01;4.70;;;3.00;;
65871;SDS011;52653;50.080;21.992;2023-08-12T14:25:55;4.80;;;3.20;;
65871;SDS011;52653;50.080;21.992;2023-08-12T14:28:48;4.90;;;2.80;;
65871;SDS011;52653;50.080;21.992;2023-08-12T14:31:41;5.40;;;3.10;;
65871;SDS011;52653;50.080;21.992;2023-08-12T14:34:34;4.10;;;2.80;;
65871;SDS011;52653;50.080;21.992;2023-08-12T14:37:30;5.90;;;3.10;;
65871;SDS011;52653;50.080;21.992;2023-08-12T14:40:23;5.90;;;3.20;;
65871;SDS011;52653;50.080;21.992;2023-08-12T14:43:16;5.90;;;3.20;;
65871;SDS011;52653;50.080;21.992;2023-08-12T14:46:04;5.30;;;3.40;;
65871;SDS011;52653;50.080;21.992;2023-08-12T14:48:58;5.40;;;3.00;;
65871;SDS011;52653;50.080;21.992;2023-08-12T14:51:40;3.90;;;3.00;;
65871;SDS011;52653;50.080;21.992;2023-08-12T14:54:33;4.30;;;3.10;;
65871;SDS011;52653;50.080;21.992;2023-08-12T15:00:12;4.80;;;2.90;;
65871;SDS011;52653;50.080;21.992;2023-08-12T15:02:58;5.70;;;3.50;;
65871;SDS011;52653;50.080;21.992;2023-08-12T15:05:59;5.50;;;3.40;;
65871;SDS011;52653;50.080;21.992;2023-08-12T15:08:53;4.70;;;3.20;;
65871;SDS011;52653;50.080;21.992;2023-08-12T15:11:33;5.70;;;3.30;;
65871;SDS011;52653;50.080;21.992;2023-08-12T15:14:25;4.60;;;2.80;;
65871;SDS011;52653;50.080;21.992;2023-08-12T15:17:20;6.30;;;3.10;;
65871;SDS011;52653;50.080;21.992;2023-08-12T15:20:08;5.40;;;3.10;;
65871;SDS011;52653;50.080;21.992;2023-08-12T15:23:02;4.60;;;3.20;;
65871;SDS011;52653;50.080;21.992;2023-08-12T15:25:38;6.00;;;3.20;;
65871;SDS011;52653;50.080;21.992;2023-08-12T15:28:33;6.30;;;3.30;;
65871;SDS011;52653;50.080;21.992;2023-08-12T15:31:26;4.40;;;3.20;;
65871;SDS011;52653;50.080;21.992;2023-08-12T15:34:20;5.60;;;3.20;;
65871;SDS011;52653;50.080;21.992;2023-08-12T15:37:13;5.50;;;3.10;;
65871;SDS011;52653;50.080;21.992;2023-08-12T15:40:06;6.40;;;3.50;;
65871;SDS011;52653;50.080;21.992;2023-08-12T15:43:00;4.50;;;3.20;;
65871;SDS011;52653;50.080;21.992;2023-08-12T15:45:44;5.10;;;2.70;;
65871;SDS011;52653;50.080;21.992;2023-08-12T15:48:38;5.60;;;3.00;;
65871;SDS011;52653;50.080;21.992;2023-08-12T15:51:34;7.30;;;3.30;;
65871;SDS011;52653;50.080;21.992;2023-08-12T15:54:26;5.40;;;3.20;;
65871;SDS011;52653;50.080;21.992;2023-08-12T15:57:18;6.60;;;3.40;;
65871;SDS011;52653;50.080;21.992;2023-08-12T16:00:11;5.40;;;3.70;;
65871;SDS011;52653;50.080;21.992;2023-08-12T16:03:04;5.00;;;3.00;;
65871;SDS011;52653;50.080;21.992;2023-08-12T16:05:59;4.60;;;3.10;;
65871;SDS011;52653;50.080;21.992;2023-08-12T16:08:45;6.00;;;3.10;;
65871;SDS011;52653;50.080;21.992;2023-08-12T16:11:58;4.50;;;2.90;;
65871;SDS011;52653;50.080;21.992;2023-08-12T16:14:51;6.30;;;3.30;;
65871;SDS011;52653;50.080;21.992;2023-08-12T16:17:33;5.00;;;3.00;;
65871;SDS011;52653;50.080;21.992;2023-08-12T16:20:20;5.50;;;3.20;;
65871;SDS011;52653;50.080;21.992;2023-08-12T16:23:13;7.40;;;3.30;;
65871;SDS011;52653;50.080;21.992;2023-08-12T16:26:06;5.00;;;3.40;;
65871;SDS011;52653;50.080;21.992;2023-08-12T16:28:59;7.60;;;3.60;;
65871;SDS011;52653;50.080;21.992;2023-08-12T16:31:52;5.30;;;3.20;;
65871;SDS011;52653;50.080;21.992;2023-08-12T16:34:45;5.70;;;3.50;;
65871;SDS011;52653;50.080;21.992;2023-08-12T16:37:38;7.30;;;3.70;;
65871;SDS011;52653;50.080;21.992;2023-08-12T16:40:31;5.40;;;3.20;;
65871;SDS011;52653;50.080;21.992;2023-08-12T16:43:18;5.40;;;3.40;;
65871;SDS011;52653;50.080;21.992;2023-08-12T16:46:04;8.30;;;4.00;;
65871;SDS011;52653;50.080;21.992;2023-08-12T16:48:36;5.90;;;3.50;;